LDPL/PUY METAR and TAF weather

Enter ICAO airport designator
Station Type Date Time Source
LDPL METAR 2020/06/03 14:30 UTC NOAA

LDPL 031430Z 21006KT 110V240 CAVOK 23/14 Q1007 NOSIG


Station Type Date Time Source
LDPL Decoded METAR 2020/06/03 14:30 UTC NOAA

Pula Aerodrome, Croatia (LDPL) 45-54N 013-55E 63M
Jun 03, 2020 - 10:30 AM EDT / 2020.06.03 1430 UTC
Wind: from the SSW (210 degrees) at 7 MPH (6 KT) (direction variable):0
Visibility: greater than 7 mile(s):0
Temperature: 73 F (23 C)
Dew Point: 57 F (14 C)
Relative Humidity: 56%
Pressure (altimeter): 29.74 in. Hg (1007 hPa)
ob: LDPL 031430Z 21006KT 110V240 CAVOK 23/14 Q1007 NOSIG
cycle: 14

Station Type Date Time Source
LDPL TAF 2020/06/03 12:27 UTC NOAA

TAF LDPL 031125Z 0312/0412 16006KT 9999 FEW040 TX25/0313Z TN16/0403Z PROB40
TEMPO 0312/0317 24008KT PROB30
TEMPO 0320/0408 TSRA FEW035CB SCT040
BECMG 0406/0408 20010KT PROB30
TEMPO 0408/0412 SHRA FEW035TCU BKN040

Example: see airport list